sensor_id;sensor_type;location;lat;lon;timestamp;temperature;humidity
8537;DHT22;4306;50.210;10.628;2023-02-28T00:01:20;-2.60;99.90
8537;DHT22;4306;50.210;10.628;2023-02-28T00:03:47;-2.60;99.90
8537;DHT22;4306;50.210;10.628;2023-02-28T00:06:15;-2.60;99.90
8537;DHT22;4306;50.210;10.628;2023-02-28T00:08:42;-2.60;99.90
8537;DHT22;4306;50.210;10.628;2023-02-28T00:11:12;-2.80;99.90
8537;DHT22;4306;50.210;10.628;2023-02-28T00:13:41;-2.70;99.90
8537;DHT22;4306;50.210;10.628;2023-02-28T00:16:11;-2.70;99.90
8537;DHT22;4306;50.210;10.628;2023-02-28T00:18:39;-2.70;99.90
8537;DHT22;4306;50.210;10.628;2023-02-28T00:21:06;-2.80;99.90
8537;DHT22;4306;50.210;10.628;2023-02-28T00:23:35;-2.80;99.90
8537;DHT22;4306;50.210;10.628;2023-02-28T00:26:02;-2.80;99.90
8537;DHT22;4306;50.210;10.628;2023-02-28T00:28:29;-2.80;99.90
8537;DHT22;4306;50.210;10.628;2023-02-28T00:30:56;-2.90;99.90
8537;DHT22;4306;50.210;10.628;2023-02-28T00:33:25;-2.90;99.90
8537;DHT22;4306;50.210;10.628;2023-02-28T00:35:52;-2.90;99.90
8537;DHT22;4306;50.210;10.628;2023-02-28T00:38:27;-2.90;99.90
8537;DHT22;4306;50.210;10.628;2023-02-28T00:40:55;-2.80;99.90
8537;DHT22;4306;50.210;10.628;2023-02-28T00:43:22;-2.90;99.90
8537;DHT22;4306;50.210;10.628;2023-02-28T00:45:48;-2.90;99.90
8537;DHT22;4306;50.210;10.628;2023-02-28T00:48:15;-2.90;99.90
8537;DHT22;4306;50.210;10.628;2023-02-28T00:50:42;-2.80;99.90
8537;DHT22;4306;50.210;10.628;2023-02-28T00:53:09;-2.90;99.90
8537;DHT22;4306;50.210;10.628;2023-02-28T00:55:36;-2.90;99.90
8537;DHT22;4306;50.210;10.628;2023-02-28T00:58:04;-2.90;99.90
8537;DHT22;4306;50.210;10.628;2023-02-28T01:00:31;-2.80;99.90
8537;DHT22;4306;50.210;10.628;2023-02-28T01:02:58;-2.80;99.90
8537;DHT22;4306;50.210;10.628;2023-02-28T01:05:24;-2.80;99.90
8537;DHT22;4306;50.210;10.628;2023-02-28T01:07:51;-2.80;99.90
8537;DHT22;4306;50.210;10.628;2023-02-28T01:10:18;-2.80;99.90
8537;DHT22;4306;50.210;10.628;2023-02-28T01:12:46;-2.70;99.90
8537;DHT22;4306;50.210;10.628;2023-02-28T01:15:14;-2.30;99.90
8537;DHT22;4306;50.210;10.628;2023-02-28T01:17:41;-2.60;99.90
8537;DHT22;4306;50.210;10.628;2023-02-28T01:20:09;-2.70;99.90
8537;DHT22;4306;50.210;10.628;2023-02-28T01:22:36;-2.60;99.90
8537;DHT22;4306;50.210;10.628;2023-02-28T01:25:03;-2.60;99.90
8537;DHT22;4306;50.210;10.628;2023-02-28T01:27:30;-2.60;99.90
8537;DHT22;4306;50.210;10.628;2023-02-28T01:29:57;-2.60;99.90
8537;DHT22;4306;50.210;10.628;2023-02-28T01:32:25;-2.50;99.90
8537;DHT22;4306;50.210;10.628;2023-02-28T01:34:52;-2.50;99.90
8537;DHT22;4306;50.210;10.628;2023-02-28T01:37:19;-2.50;99.90
8537;DHT22;4306;50.210;10.628;2023-02-28T01:39:45;-2.50;99.90
8537;DHT22;4306;50.210;10.628;2023-02-28T01:42:12;-2.50;99.90
8537;DHT22;4306;50.210;10.628;2023-02-28T01:44:59;-2.50;99.90
8537;DHT22;4306;50.210;10.628;2023-02-28T01:47:30;-2.50;99.90
8537;DHT22;4306;50.210;10.628;2023-02-28T01:49:59;-2.50;99.90
8537;DHT22;4306;50.210;10.628;2023-02-28T01:52:27;-2.50;99.90
8537;DHT22;4306;50.210;10.628;2023-02-28T01:54:56;-2.60;99.90
8537;DHT22;4306;50.210;10.628;2023-02-28T01:57:29;-2.60;99.90
8537;DHT22;4306;50.210;10.628;2023-02-28T02:00:06;-2.60;99.90
8537;DHT22;4306;50.210;10.628;2023-02-28T02:02:36;-2.60;99.90
8537;DHT22;4306;50.210;10.628;2023-02-28T02:05:06;-2.70;99.90
8537;DHT22;4306;50.210;10.628;2023-02-28T02:07:35;-2.70;99.90
8537;DHT22;4306;50.210;10.628;2023-02-28T02:10:06;-2.80;99.90
8537;DHT22;4306;50.210;10.628;2023-02-28T02:12:44;-2.80;99.90
8537;DHT22;4306;50.210;10.628;2023-02-28T02:15:16;-2.80;99.90
8537;DHT22;4306;50.210;10.628;2023-02-28T02:17:50;-2.90;99.90
8537;DHT22;4306;50.210;10.628;2023-02-28T02:23:46;-2.90;99.90
8537;DHT22;4306;50.210;10.628;2023-02-28T02:26:52;-3.00;99.90
8537;DHT22;4306;50.210;10.628;2023-02-28T02:30:00;-3.10;99.90
8537;DHT22;4306;50.210;10.628;2023-02-28T02:32:52;-3.10;99.90
8537;DHT22;4306;50.210;10.628;2023-02-28T02:35:28;-3.10;99.90
8537;DHT22;4306;50.210;10.628;2023-02-28T02:37:59;-3.10;99.90
8537;DHT22;4306;50.210;10.628;2023-02-28T02:40:30;-3.10;99.90
8537;DHT22;4306;50.210;10.628;2023-02-28T02:43:02;-3.20;99.90
8537;DHT22;4306;50.210;10.628;2023-02-28T02:45:33;-3.20;99.90
8537;DHT22;4306;50.210;10.628;2023-02-28T02:48:04;-3.10;99.90
8537;DHT22;4306;50.210;10.628;2023-02-28T02:50:38;-3.20;99.90
8537;DHT22;4306;50.210;10.628;2023-02-28T02:53:07;-3.20;99.90
8537;DHT22;4306;50.210;10.628;2023-02-28T02:55:37;-3.10;99.90
8537;DHT22;4306;50.210;10.628;2023-02-28T02:58:08;-3.10;99.90
8537;DHT22;4306;50.210;10.628;2023-02-28T03:00:41;-3.10;99.90
8537;DHT22;4306;50.210;10.628;2023-02-28T03:03:10;-3.10;99.90
8537;DHT22;4306;50.210;10.628;2023-02-28T03:05:44;-3.10;99.90
8537;DHT22;4306;50.210;10.628;2023-02-28T03:08:12;-3.10;99.90
8537;DHT22;4306;50.210;10.628;2023-02-28T03:10:41;-3.10;99.90
8537;DHT22;4306;50.210;10.628;2023-02-28T03:13:42;-3.20;99.90
8537;DHT22;4306;50.210;10.628;2023-02-28T03:16:27;-3.20;99.90
8537;DHT22;4306;50.210;10.628;2023-02-28T03:19:15;-3.30;99.90
8537;DHT22;4306;50.210;10.628;2023-02-28T03:21:55;-3.30;99.90
8537;DHT22;4306;50.210;10.628;2023-02-28T03:24:26;-3.30;99.90
8537;DHT22;4306;50.210;10.628;2023-02-28T03:27:02;-3.40;99.90
8537;DHT22;4306;50.210;10.628;2023-02-28T03:29:34;-3.50;99.90
8537;DHT22;4306;50.210;10.628;2023-02-28T03:32:05;-3.60;99.90
8537;DHT22;4306;50.210;10.628;2023-02-28T03:34:35;-3.60;99.90
8537;DHT22;4306;50.210;10.628;2023-02-28T03:37:08;-3.60;99.90
8537;DHT22;4306;50.210;10.628;2023-02-28T03:39:39;-3.70;99.90
8537;DHT22;4306;50.210;10.628;2023-02-28T03:42:11;-3.70;99.90
8537;DHT22;4306;50.210;10.628;2023-02-28T03:44:42;-3.60;99.90
8537;DHT22;4306;50.210;10.628;2023-02-28T03:47:13;-3.70;99.90
8537;DHT22;4306;50.210;10.628;2023-02-28T03:49:45;-3.80;99.90
8537;DHT22;4306;50.210;10.628;2023-02-28T03:52:18;-3.80;99.90
8537;DHT22;4306;50.210;10.628;2023-02-28T03:54:49;-3.90;99.90
8537;DHT22;4306;50.210;10.628;2023-02-28T03:57:23;-3.90;99.90
8537;DHT22;4306;50.210;10.628;2023-02-28T03:59:55;-3.90;99.90
8537;DHT22;4306;50.210;10.628;2023-02-28T04:02:23;-4.00;99.90
8537;DHT22;4306;50.210;10.628;2023-02-28T04:04:50;-4.00;99.90
8537;DHT22;4306;50.210;10.628;2023-02-28T04:07:18;-4.00;99.90
8537;DHT22;4306;50.210;10.628;2023-02-28T04:09:45;-4.10;99.90
8537;DHT22;4306;50.210;10.628;2023-02-28T04:12:12;-4.10;99.90
8537;DHT22;4306;50.210;10.628;2023-02-28T04:14:38;-4.10;99.90
8537;DHT22;4306;50.210;10.628;2023-02-28T04:17:05;-4.00;99.90
8537;DHT22;4306;50.210;10.628;2023-02-28T04:19:32;-4.00;99.90
8537;DHT22;4306;50.210;10.628;2023-02-28T04:21:59;-4.10;99.90
8537;DHT22;4306;50.210;10.628;2023-02-28T04:24:29;-4.00;99.90
8537;DHT22;4306;50.210;10.628;2023-02-28T04:26:57;-3.90;99.90
8537;DHT22;4306;50.210;10.628;2023-02-28T04:29:26;-3.90;99.90
8537;DHT22;4306;50.210;10.628;2023-02-28T04:31:54;-3.90;99.90
8537;DHT22;4306;50.210;10.628;2023-02-28T04:34:23;-3.80;99.90
8537;DHT22;4306;50.210;10.628;2023-02-28T04:36:50;-3.80;99.90
8537;DHT22;4306;50.210;10.628;2023-02-28T04:39:20;-3.70;99.90
8537;DHT22;4306;50.210;10.628;2023-02-28T04:41:48;-3.70;99.90
8537;DHT22;4306;50.210;10.628;2023-02-28T04:44:15;-3.60;99.90
8537;DHT22;4306;50.210;10.628;2023-02-28T04:46:43;-3.60;99.90
8537;DHT22;4306;50.210;10.628;2023-02-28T04:49:11;-3.60;99.90
8537;DHT22;4306;50.210;10.628;2023-02-28T04:51:38;-3.60;99.90
8537;DHT22;4306;50.210;10.628;2023-02-28T04:54:05;-3.50;99.90
8537;DHT22;4306;50.210;10.628;2023-02-28T04:56:32;-3.70;99.90
8537;DHT22;4306;50.210;10.628;2023-02-28T04:59:00;-3.60;99.90
8537;DHT22;4306;50.210;10.628;2023-02-28T05:01:29;-3.70;99.90
8537;DHT22;4306;50.210;10.628;2023-02-28T05:03:58;-3.70;99.90
8537;DHT22;4306;50.210;10.628;2023-02-28T05:06:27;-3.70;99.90
8537;DHT22;4306;50.210;10.628;2023-02-28T05:08:54;-3.70;99.90
8537;DHT22;4306;50.210;10.628;2023-02-28T05:11:23;-3.70;99.90
8537;DHT22;4306;50.210;10.628;2023-02-28T05:13:50;-3.70;99.90
8537;DHT22;4306;50.210;10.628;2023-02-28T05:16:19;-3.70;99.90
8537;DHT22;4306;50.210;10.628;2023-02-28T05:18:47;-3.60;99.90
8537;DHT22;4306;50.210;10.628;2023-02-28T05:21:26;-3.70;99.90
8537;DHT22;4306;50.210;10.628;2023-02-28T05:23:54;-3.70;99.90
8537;DHT22;4306;50.210;10.628;2023-02-28T05:26:21;-3.70;99.90
8537;DHT22;4306;50.210;10.628;2023-02-28T05:28:48;-3.70;99.90
8537;DHT22;4306;50.210;10.628;2023-02-28T05:31:15;-3.70;99.90
8537;DHT22;4306;50.210;10.628;2023-02-28T05:33:43;-3.80;99.90
8537;DHT22;4306;50.210;10.628;2023-02-28T05:36:10;-3.80;99.90
8537;DHT22;4306;50.210;10.628;2023-02-28T05:38:37;-3.90;99.90
8537;DHT22;4306;50.210;10.628;2023-02-28T05:41:08;-3.90;99.90
8537;DHT22;4306;50.210;10.628;2023-02-28T05:43:36;-3.90;99.90
8537;DHT22;4306;50.210;10.628;2023-02-28T05:46:04;-3.90;99.90
8537;DHT22;4306;50.210;10.628;2023-02-28T05:48:31;-3.90;99.90
8537;DHT22;4306;50.210;10.628;2023-02-28T05:51:00;-3.80;99.90
8537;DHT22;4306;50.210;10.628;2023-02-28T05:53:28;-4.00;99.90
8537;DHT22;4306;50.210;10.628;2023-02-28T05:55:55;-4.00;99.90
8537;DHT22;4306;50.210;10.628;2023-02-28T05:58:22;-4.00;99.90
8537;DHT22;4306;50.210;10.628;2023-02-28T06:00:49;-3.90;99.90
8537;DHT22;4306;50.210;10.628;2023-02-28T06:03:15;-4.00;99.90
8537;DHT22;4306;50.210;10.628;2023-02-28T06:05:42;-4.00;99.90
8537;DHT22;4306;50.210;10.628;2023-02-28T06:08:10;-3.80;99.90
8537;DHT22;4306;50.210;10.628;2023-02-28T06:10:37;-3.90;99.90
8537;DHT22;4306;50.210;10.628;2023-02-28T06:13:04;-3.80;99.90
8537;DHT22;4306;50.210;10.628;2023-02-28T06:15:32;-3.90;99.90
8537;DHT22;4306;50.210;10.628;2023-02-28T06:17:59;-3.90;99.90
8537;DHT22;4306;50.210;10.628;2023-02-28T06:20:27;-3.90;99.90
8537;DHT22;4306;50.210;10.628;2023-02-28T06:22:55;-3.90;99.90
8537;DHT22;4306;50.210;10.628;2023-02-28T06:25:25;-3.90;99.90
8537;DHT22;4306;50.210;10.628;2023-02-28T06:27:53;-3.90;99.90
8537;DHT22;4306;50.210;10.628;2023-02-28T06:30:20;-3.80;99.90
8537;DHT22;4306;50.210;10.628;2023-02-28T06:32:50;-3.80;99.90
8537;DHT22;4306;50.210;10.628;2023-02-28T06:35:17;-3.80;99.90
8537;DHT22;4306;50.210;10.628;2023-02-28T06:37:44;-3.80;99.90
8537;DHT22;4306;50.210;10.628;2023-02-28T06:40:13;-3.70;99.90
8537;DHT22;4306;50.210;10.628;2023-02-28T06:42:41;-3.60;99.90
8537;DHT22;4306;50.210;10.628;2023-02-28T06:45:09;-3.50;99.90
8537;DHT22;4306;50.210;10.628;2023-02-28T06:47:37;-3.50;99.90
8537;DHT22;4306;50.210;10.628;2023-02-28T06:50:04;-3.40;99.90
8537;DHT22;4306;50.210;10.628;2023-02-28T06:52:32;-3.30;99.90
8537;DHT22;4306;50.210;10.628;2023-02-28T06:55:01;-3.20;99.90
8537;DHT22;4306;50.210;10.628;2023-02-28T06:57:29;-3.10;99.90
8537;DHT22;4306;50.210;10.628;2023-02-28T06:59:59;-3.00;99.90
8537;DHT22;4306;50.210;10.628;2023-02-28T07:02:27;-2.90;99.90
8537;DHT22;4306;50.210;10.628;2023-02-28T07:04:54;-2.90;99.90
8537;DHT22;4306;50.210;10.628;2023-02-28T07:07:21;-2.80;99.90
8537;DHT22;4306;50.210;10.628;2023-02-28T07:09:48;-2.70;99.90
8537;DHT22;4306;50.210;10.628;2023-02-28T07:12:15;-2.60;99.90
8537;DHT22;4306;50.210;10.628;2023-02-28T07:14:42;-2.60;99.90
8537;DHT22;4306;50.210;10.628;2023-02-28T07:17:11;-2.50;99.90
8537;DHT22;4306;50.210;10.628;2023-02-28T07:19:38;-2.40;99.90
8537;DHT22;4306;50.210;10.628;2023-02-28T07:22:05;-2.30;99.90
8537;DHT22;4306;50.210;10.628;2023-02-28T07:24:32;-2.30;99.90
8537;DHT22;4306;50.210;10.628;2023-02-28T07:26:59;-2.20;99.90
8537;DHT22;4306;50.210;10.628;2023-02-28T07:29:27;-2.10;99.90
8537;DHT22;4306;50.210;10.628;2023-02-28T07:31:54;-2.00;99.90
8537;DHT22;4306;50.210;10.628;2023-02-28T07:34:22;-2.00;99.90
8537;DHT22;4306;50.210;10.628;2023-02-28T07:36:52;-1.90;99.90
8537;DHT22;4306;50.210;10.628;2023-02-28T07:39:19;-1.80;99.90
8537;DHT22;4306;50.210;10.628;2023-02-28T07:41:46;-1.80;99.90
8537;DHT22;4306;50.210;10.628;2023-02-28T07:44:13;-1.70;99.90
8537;DHT22;4306;50.210;10.628;2023-02-28T07:46:40;-1.70;99.90
8537;DHT22;4306;50.210;10.628;2023-02-28T07:49:07;-1.60;99.90
8537;DHT22;4306;50.210;10.628;2023-02-28T07:51:35;-1.50;99.90
8537;DHT22;4306;50.210;10.628;2023-02-28T07:54:02;-1.50;99.90
8537;DHT22;4306;50.210;10.628;2023-02-28T07:56:29;-1.40;99.90
8537;DHT22;4306;50.210;10.628;2023-02-28T07:58:56;-1.30;99.90
8537;DHT22;4306;50.210;10.628;2023-02-28T08:01:23;-1.30;99.90
8537;DHT22;4306;50.210;10.628;2023-02-28T08:03:50;-1.20;99.90
8537;DHT22;4306;50.210;10.628;2023-02-28T08:06:19;-1.20;99.90
8537;DHT22;4306;50.210;10.628;2023-02-28T08:08:48;-1.10;99.90
8537;DHT22;4306;50.210;10.628;2023-02-28T08:11:15;-1.10;99.90
8537;DHT22;4306;50.210;10.628;2023-02-28T08:13:42;-1.10;99.90
8537;DHT22;4306;50.210;10.628;2023-02-28T08:16:10;-0.90;99.90
8537;DHT22;4306;50.210;10.628;2023-02-28T08:18:39;-0.90;99.90
8537;DHT22;4306;50.210;10.628;2023-02-28T08:21:07;-0.80;99.90
8537;DHT22;4306;50.210;10.628;2023-02-28T08:23:34;-0.80;99.90
8537;DHT22;4306;50.210;10.628;2023-02-28T08:26:02;-0.70;99.90
8537;DHT22;4306;50.210;10.628;2023-02-28T08:28:30;-0.60;99.90
8537;DHT22;4306;50.210;10.628;2023-02-28T08:30:57;-0.50;99.90
8537;DHT22;4306;50.210;10.628;2023-02-28T08:33:25;-0.40;99.90
8537;DHT22;4306;50.210;10.628;2023-02-28T08:35:53;-0.40;99.90
8537;DHT22;4306;50.210;10.628;2023-02-28T08:38:21;-0.40;99.90
8537;DHT22;4306;50.210;10.628;2023-02-28T08:40:48;-0.30;99.90
8537;DHT22;4306;50.210;10.628;2023-02-28T08:43:16;-0.20;99.90
8537;DHT22;4306;50.210;10.628;2023-02-28T08:45:43;-0.20;99.90
8537;DHT22;4306;50.210;10.628;2023-02-28T08:48:10;-0.10;99.90
8537;DHT22;4306;50.210;10.628;2023-02-28T08:50:37;0.10;99.90
8537;DHT22;4306;50.210;10.628;2023-02-28T08:53:03;0.10;99.90
8537;DHT22;4306;50.210;10.628;2023-02-28T08:55:30;0.10;99.90
8537;DHT22;4306;50.210;10.628;2023-02-28T08:57:57;0.20;99.90
8537;DHT22;4306;50.210;10.628;2023-02-28T09:00:26;0.20;99.90
8537;DHT22;4306;50.210;10.628;2023-02-28T09:02:53;0.30;99.90
8537;DHT22;4306;50.210;10.628;2023-02-28T09:05:20;0.20;99.40
8537;DHT22;4306;50.210;10.628;2023-02-28T09:07:47;0.30;99.50
8537;DHT22;4306;50.210;10.628;2023-02-28T09:10:13;0.40;99.30
8537;DHT22;4306;50.210;10.628;2023-02-28T09:12:40;0.50;98.50
8537;DHT22;4306;50.210;10.628;2023-02-28T09:15:08;0.60;99.60
8537;DHT22;4306;50.210;10.628;2023-02-28T09:17:36;0.60;97.80
8537;DHT22;4306;50.210;10.628;2023-02-28T09:20:04;0.70;98.50
8537;DHT22;4306;50.210;10.628;2023-02-28T09:22:31;0.80;97.40
8537;DHT22;4306;50.210;10.628;2023-02-28T09:24:58;0.80;97.90
8537;DHT22;4306;50.210;10.628;2023-02-28T09:27:25;1.00;97.10
8537;DHT22;4306;50.210;10.628;2023-02-28T09:29:52;1.00;97.80
8537;DHT22;4306;50.210;10.628;2023-02-28T09:32:19;1.10;95.50
8537;DHT22;4306;50.210;10.628;2023-02-28T09:34:47;1.10;94.60
8537;DHT22;4306;50.210;10.628;2023-02-28T09:37:14;1.20;94.70
8537;DHT22;4306;50.210;10.628;2023-02-28T09:39:41;1.20;94.40
8537;DHT22;4306;50.210;10.628;2023-02-28T09:44:45;1.30;94.00
8537;DHT22;4306;50.210;10.628;2023-02-28T09:47:28;1.40;94.60
8537;DHT22;4306;50.210;10.628;2023-02-28T09:49:59;1.50;93.40
8537;DHT22;4306;50.210;10.628;2023-02-28T09:52:32;1.50;92.10
8537;DHT22;4306;50.210;10.628;2023-02-28T09:55:04;1.70;93.10
8537;DHT22;4306;50.210;10.628;2023-02-28T09:57:40;1.70;92.80
8537;DHT22;4306;50.210;10.628;2023-02-28T10:00:13;1.60;92.00
8537;DHT22;4306;50.210;10.628;2023-02-28T10:03:06;1.60;92.20
8537;DHT22;4306;50.210;10.628;2023-02-28T10:05:41;1.30;91.80
8537;DHT22;4306;50.210;10.628;2023-02-28T10:08:13;1.40;92.20
8537;DHT22;4306;50.210;10.628;2023-02-28T10:10:43;1.40;92.00
8537;DHT22;4306;50.210;10.628;2023-02-28T10:13:20;1.40;92.90
8537;DHT22;4306;50.210;10.628;2023-02-28T10:15:52;1.50;93.00
8537;DHT22;4306;50.210;10.628;2023-02-28T10:18:24;1.60;93.20
8537;DHT22;4306;50.210;10.628;2023-02-28T10:20:53;1.90;92.90
8537;DHT22;4306;50.210;10.628;2023-02-28T10:23:24;2.10;92.70
8537;DHT22;4306;50.210;10.628;2023-02-28T10:25:55;2.00;91.20
8537;DHT22;4306;50.210;10.628;2023-02-28T10:28:25;1.90;90.20
8537;DHT22;4306;50.210;10.628;2023-02-28T10:30:53;1.90;91.60
8537;DHT22;4306;50.210;10.628;2023-02-28T10:33:23;1.90;90.00
8537;DHT22;4306;50.210;10.628;2023-02-28T10:35:56;2.00;90.10
8537;DHT22;4306;50.210;10.628;2023-02-28T10:38:27;2.00;90.00
8537;DHT22;4306;50.210;10.628;2023-02-28T10:41:04;2.00;89.20
8537;DHT22;4306;50.210;10.628;2023-02-28T10:43:32;2.10;90.40
8537;DHT22;4306;50.210;10.628;2023-02-28T10:46:03;1.90;87.90
8537;DHT22;4306;50.210;10.628;2023-02-28T10:48:33;2.10;89.10
8537;DHT22;4306;50.210;10.628;2023-02-28T10:51:02;2.30;88.70
8537;DHT22;4306;50.210;10.628;2023-02-28T10:53:37;2.60;88.60
8537;DHT22;4306;50.210;10.628;2023-02-28T10:56:06;2.70;88.80
8537;DHT22;4306;50.210;10.628;2023-02-28T10:58:47;2.50;87.20
8537;DHT22;4306;50.210;10.628;2023-02-28T11:01:16;2.60;87.40
8537;DHT22;4306;50.210;10.628;2023-02-28T11:03:43;2.70;87.70
8537;DHT22;4306;50.210;10.628;2023-02-28T11:06:17;2.60;86.70
8537;DHT22;4306;50.210;10.628;2023-02-28T11:08:47;2.60;87.20
8537;DHT22;4306;50.210;10.628;2023-02-28T11:11:14;2.80;87.70
8537;DHT22;4306;50.210;10.628;2023-02-28T11:13:44;2.70;84.60
8537;DHT22;4306;50.210;10.628;2023-02-28T11:16:13;2.70;84.90
8537;DHT22;4306;50.210;10.628;2023-02-28T11:18:43;2.70;85.30
8537;DHT22;4306;50.210;10.628;2023-02-28T11:21:19;2.80;85.40
8537;DHT22;4306;50.210;10.628;2023-02-28T11:23:48;2.80;84.50
8537;DHT22;4306;50.210;10.628;2023-02-28T11:26:17;2.80;85.30
8537;DHT22;4306;50.210;10.628;2023-02-28T11:29:09;3.00;85.80
8537;DHT22;4306;50.210;10.628;2023-02-28T11:31:36;2.90;83.00
8537;DHT22;4306;50.210;10.628;2023-02-28T11:34:24;2.80;82.90
8537;DHT22;4306;50.210;10.628;2023-02-28T11:36:56;2.80;82.90
8537;DHT22;4306;50.210;10.628;2023-02-28T11:39:24;2.90;82.60
8537;DHT22;4306;50.210;10.628;2023-02-28T11:42:05;2.90;83.00
8537;DHT22;4306;50.210;10.628;2023-02-28T11:44:48;2.90;82.80
8537;DHT22;4306;50.210;10.628;2023-02-28T11:47:28;3.10;85.10
8537;DHT22;4306;50.210;10.628;2023-02-28T11:50:08;2.90;84.80
8537;DHT22;4306;50.210;10.628;2023-02-28T11:52:45;2.90;81.80
8537;DHT22;4306;50.210;10.628;2023-02-28T11:55:19;3.00;83.90
8537;DHT22;4306;50.210;10.628;2023-02-28T11:58:21;3.20;83.70
8537;DHT22;4306;50.210;10.628;2023-02-28T12:01:08;3.30;84.60
8537;DHT22;4306;50.210;10.628;2023-02-28T12:03:44;3.00;81.70
8537;DHT22;4306;50.210;10.628;2023-02-28T12:06:20;3.20;84.10
8537;DHT22;4306;50.210;10.628;2023-02-28T12:08:58;3.30;82.80
8537;DHT22;4306;50.210;10.628;2023-02-28T12:11:40;3.40;83.50
8537;DHT22;4306;50.210;10.628;2023-02-28T12:14:50;3.60;83.60
8537;DHT22;4306;50.210;10.628;2023-02-28T12:17:36;3.40;82.80
8537;DHT22;4306;50.210;10.628;2023-02-28T12:20:14;3.50;83.20
8537;DHT22;4306;50.210;10.628;2023-02-28T12:22:49;3.60;81.50
8537;DHT22;4306;50.210;10.628;2023-02-28T12:25:47;3.40;79.80
8537;DHT22;4306;50.210;10.628;2023-02-28T12:28:19;3.40;81.80
8537;DHT22;4306;50.210;10.628;2023-02-28T12:30:53;3.50;80.30
8537;DHT22;4306;50.210;10.628;2023-02-28T12:33:26;3.50;82.10
8537;DHT22;4306;50.210;10.628;2023-02-28T12:35:57;3.50;81.30
8537;DHT22;4306;50.210;10.628;2023-02-28T12:38:27;3.50;82.40
8537;DHT22;4306;50.210;10.628;2023-02-28T12:40:58;3.50;80.30
8537;DHT22;4306;50.210;10.628;2023-02-28T12:43:30;3.20;79.30
8537;DHT22;4306;50.210;10.628;2023-02-28T12:46:02;3.50;82.60
8537;DHT22;4306;50.210;10.628;2023-02-28T12:48:38;3.70;80.20
8537;DHT22;4306;50.210;10.628;2023-02-28T12:51:07;3.60;80.90
8537;DHT22;4306;50.210;10.628;2023-02-28T12:53:45;3.70;80.40
8537;DHT22;4306;50.210;10.628;2023-02-28T12:56:19;3.60;80.00
8537;DHT22;4306;50.210;10.628;2023-02-28T12:58:50;3.80;81.80
8537;DHT22;4306;50.210;10.628;2023-02-28T13:01:42;3.70;80.00
8537;DHT22;4306;50.210;10.628;2023-02-28T13:04:42;3.30;78.80
8537;DHT22;4306;50.210;10.628;2023-02-28T13:07:29;3.60;80.90
8537;DHT22;4306;50.210;10.628;2023-02-28T13:10:00;3.70;80.00
8537;DHT22;4306;50.210;10.628;2023-02-28T13:12:30;3.90;81.50
8537;DHT22;4306;50.210;10.628;2023-02-28T13:15:05;3.80;81.20
8537;DHT22;4306;50.210;10.628;2023-02-28T13:17:39;4.00;82.10
8537;DHT22;4306;50.210;10.628;2023-02-28T13:20:16;3.70;79.20
8537;DHT22;4306;50.210;10.628;2023-02-28T13:22:45;3.60;79.60
8537;DHT22;4306;50.210;10.628;2023-02-28T13:28:58;4.00;80.70
8537;DHT22;4306;50.210;10.628;2023-02-28T13:31:26;4.10;80.80
8537;DHT22;4306;50.210;10.628;2023-02-28T13:34:13;4.20;80.20
8537;DHT22;4306;50.210;10.628;2023-02-28T13:36:40;4.20;78.50
8537;DHT22;4306;50.210;10.628;2023-02-28T13:39:47;4.20;79.30
8537;DHT22;4306;50.210;10.628;2023-02-28T13:42:32;4.30;80.40
8537;DHT22;4306;50.210;10.628;2023-02-28T13:45:21;4.20;79.40
8537;DHT22;4306;50.210;10.628;2023-02-28T13:47:53;4.30;78.30
8537;DHT22;4306;50.210;10.628;2023-02-28T13:50:28;4.40;80.10
8537;DHT22;4306;50.210;10.628;2023-02-28T13:55:57;4.50;78.60
8537;DHT22;4306;50.210;10.628;2023-02-28T13:58:41;4.50;79.10
8537;DHT22;4306;50.210;10.628;2023-02-28T14:01:40;4.20;79.00
8537;DHT22;4306;50.210;10.628;2023-02-28T14:04:32;4.20;79.80
8537;DHT22;4306;50.210;10.628;2023-02-28T14:07:05;4.20;78.40
8537;DHT22;4306;50.210;10.628;2023-02-28T14:09:35;4.10;79.40
8537;DHT22;4306;50.210;10.628;2023-02-28T14:15:38;4.20;78.10
8537;DHT22;4306;50.210;10.628;2023-02-28T14:18:24;4.00;78.20
8537;DHT22;4306;50.210;10.628;2023-02-28T14:20:55;4.10;78.60
8537;DHT22;4306;50.210;10.628;2023-02-28T14:23:56;4.30;79.10
8537;DHT22;4306;50.210;10.628;2023-02-28T14:26:53;4.10;79.20
8537;DHT22;4306;50.210;10.628;2023-02-28T14:32:28;4.00;77.90
8537;DHT22;4306;50.210;10.628;2023-02-28T14:35:04;4.00;78.60
8537;DHT22;4306;50.210;10.628;2023-02-28T14:37:38;4.00;78.00
8537;DHT22;4306;50.210;10.628;2023-02-28T14:40:12;4.00;78.60
8537;DHT22;4306;50.210;10.628;2023-02-28T14:42:47;3.90;78.00
8537;DHT22;4306;50.210;10.628;2023-02-28T14:45:18;3.90;78.50
8537;DHT22;4306;50.210;10.628;2023-02-28T14:47:46;3.80;78.20
8537;DHT22;4306;50.210;10.628;2023-02-28T14:50:19;3.90;80.30
8537;DHT22;4306;50.210;10.628;2023-02-28T14:52:47;3.90;78.80
8537;DHT22;4306;50.210;10.628;2023-02-28T14:55:18;3.60;77.50
8537;DHT22;4306;50.210;10.628;2023-02-28T14:57:52;3.70;78.80
8537;DHT22;4306;50.210;10.628;2023-02-28T15:00:23;3.60;79.60
8537;DHT22;4306;50.210;10.628;2023-02-28T15:02:51;3.80;81.50
8537;DHT22;4306;50.210;10.628;2023-02-28T15:05:26;3.80;79.70
8537;DHT22;4306;50.210;10.628;2023-02-28T15:08:10;3.90;80.70
8537;DHT22;4306;50.210;10.628;2023-02-28T15:10:39;3.90;80.60
8537;DHT22;4306;50.210;10.628;2023-02-28T15:13:10;4.00;79.00
8537;DHT22;4306;50.210;10.628;2023-02-28T15:15:45;3.90;79.20
8537;DHT22;4306;50.210;10.628;2023-02-28T15:18:26;3.80;79.70
8537;DHT22;4306;50.210;10.628;2023-02-28T15:20:57;3.90;80.60
8537;DHT22;4306;50.210;10.628;2023-02-28T15:23:25;4.00;81.50
8537;DHT22;4306;50.210;10.628;2023-02-28T15:25:53;3.90;80.60
8537;DHT22;4306;50.210;10.628;2023-02-28T15:28:22;3.80;81.20
8537;DHT22;4306;50.210;10.628;2023-02-28T15:30:52;3.70;80.20
8537;DHT22;4306;50.210;10.628;2023-02-28T15:33:22;3.50;79.30
8537;DHT22;4306;50.210;10.628;2023-02-28T15:35:51;3.60;80.80
8537;DHT22;4306;50.210;10.628;2023-02-28T15:38:22;3.60;80.70
8537;DHT22;4306;50.210;10.628;2023-02-28T15:40:54;3.70;81.30
8537;DHT22;4306;50.210;10.628;2023-02-28T15:43:27;3.60;81.20
8537;DHT22;4306;50.210;10.628;2023-02-28T15:46:00;3.60;80.30
8537;DHT22;4306;50.210;10.628;2023-02-28T15:48:31;3.50;80.20
8537;DHT22;4306;50.210;10.628;2023-02-28T15:51:04;3.50;80.70
8537;DHT22;4306;50.210;10.628;2023-02-28T15:53:39;3.30;80.90
8537;DHT22;4306;50.210;10.628;2023-02-28T15:56:22;3.40;81.40
8537;DHT22;4306;50.210;10.628;2023-02-28T15:58:50;3.30;80.80
8537;DHT22;4306;50.210;10.628;2023-02-28T16:01:23;3.30;81.80
8537;DHT22;4306;50.210;10.628;2023-02-28T16:03:54;3.30;81.70
8537;DHT22;4306;50.210;10.628;2023-02-28T16:06:39;3.20;82.20
8537;DHT22;4306;50.210;10.628;2023-02-28T16:09:11;3.10;81.30
8537;DHT22;4306;50.210;10.628;2023-02-28T16:11:42;3.10;82.10
8537;DHT22;4306;50.210;10.628;2023-02-28T16:14:16;3.00;81.50
8537;DHT22;4306;50.210;10.628;2023-02-28T16:16:44;2.90;82.30
8537;DHT22;4306;50.210;10.628;2023-02-28T16:19:12;2.90;81.80
8537;DHT22;4306;50.210;10.628;2023-02-28T16:21:40;2.80;81.90
8537;DHT22;4306;50.210;10.628;2023-02-28T16:24:09;2.70;82.60
8537;DHT22;4306;50.210;10.628;2023-02-28T16:26:38;2.60;82.00
8537;DHT22;4306;50.210;10.628;2023-02-28T16:29:14;2.70;83.20
8537;DHT22;4306;50.210;10.628;2023-02-28T16:31:43;2.60;83.20
8537;DHT22;4306;50.210;10.628;2023-02-28T16:34:11;2.50;83.30
8537;DHT22;4306;50.210;10.628;2023-02-28T16:36:39;2.50;84.40
8537;DHT22;4306;50.210;10.628;2023-02-28T16:39:06;2.30;84.00